createdAt,value
2022-10-13T04:04:30.683Z,8.98
2022-10-13T04:07:33.212Z,9.13
2022-10-13T04:10:39.908Z,9.26
2022-10-13T04:13:42.967Z,9.03
2022-10-13T04:16:45.106Z,8.95
2022-10-13T04:19:47.493Z,9.09
2022-10-13T04:22:49.701Z,8.98
2022-10-13T04:25:52.167Z,8.95
2022-10-13T04:28:55.345Z,9.09
2022-10-13T04:31:59.613Z,9.24
2022-10-13T04:35:01.636Z,9.07
2022-10-13T04:38:03.962Z,9.06
2022-10-13T04:41:07.231Z,8.93
2022-10-13T04:44:09.587Z,8.87
2022-10-13T04:47:11.642Z,8.98
2022-10-13T04:50:13.954Z,9.01
2022-10-13T04:53:19.151Z,8.84
2022-10-13T04:56:21.807Z,8.82
2022-10-13T04:59:23.874Z,8.84
2022-10-13T05:02:26.225Z,8.93
2022-10-13T05:05:28.699Z,8.90
2022-10-13T05:08:33.045Z,8.72
2022-10-13T05:11:35.101Z,8.69
2022-10-13T05:14:37.426Z,8.63
2022-10-13T05:17:42.728Z,8.69
2022-10-13T05:20:45.199Z,8.71
2022-10-13T05:23:47.899Z,8.73
2022-10-13T05:26:50.181Z,8.69
2022-10-13T05:29:52.225Z,8.78
2022-10-13T05:32:54.533Z,8.70
2022-10-13T05:36:06.743Z,8.78
2022-10-13T05:39:11.249Z,8.81
2022-10-13T05:42:13.337Z,8.90
2022-10-13T05:45:16.950Z,8.91
2022-10-13T05:48:18.969Z,9.11
2022-10-13T05:51:27.462Z,8.99
2022-10-13T05:54:42.184Z,9.16
2022-10-13T05:57:50.712Z,9.14
2022-10-13T06:00:55.222Z,9.11
2022-10-13T06:04:03.351Z,9.15
2022-10-13T06:07:05.991Z,9.35
2022-10-13T06:10:08.985Z,9.38
2022-10-13T06:13:11.535Z,9.44
2022-10-13T06:16:13.821Z,9.54
2022-10-13T06:19:15.848Z,9.60
2022-10-13T06:22:18.460Z,9.65
2022-10-13T06:25:21.025Z,10.05
2022-10-13T06:28:23.352Z,10.33
2022-10-13T06:31:25.469Z,10.26
2022-10-13T06:34:27.764Z,10.34
2022-10-13T06:37:29.891Z,10.43
2022-10-13T06:40:34.410Z,10.57
2022-10-13T06:43:40.500Z,10.53
2022-10-13T06:46:44.962Z,10.47
2022-10-13T06:49:47.213Z,10.48
2022-10-13T06:52:49.553Z,10.56
2022-10-13T06:55:52.574Z,10.70
2022-10-13T06:58:55.082Z,10.89
2022-10-13T07:01:57.394Z,11.00
2022-10-13T07:05:00.209Z,11.09
2022-10-13T07:08:02.360Z,11.18
2022-10-13T07:11:15.361Z,11.42
2022-10-13T07:14:17.878Z,11.59
2022-10-13T07:17:20.581Z,11.71
2022-10-13T07:20:24.256Z,11.86
2022-10-13T07:23:27.378Z,11.96
2022-10-13T07:26:29.628Z,12.10
2022-10-13T07:29:31.947Z,12.30
2022-10-13T07:32:34.018Z,12.32
2022-10-13T07:35:40.336Z,12.55
2022-10-13T07:38:42.808Z,12.54
2022-10-13T07:41:50.120Z,12.65
2022-10-13T07:44:53.063Z,12.81
2022-10-13T07:47:56.594Z,12.93
2022-10-13T07:50:58.955Z,13.04
2022-10-13T07:54:01.310Z,13.18
2022-10-13T07:57:03.616Z,13.36
2022-10-13T08:00:07.041Z,13.46
2022-10-13T08:03:14.261Z,13.54
2022-10-13T08:06:17.302Z,13.61
2022-10-13T08:09:19.381Z,13.65
2022-10-13T08:12:22.003Z,13.89
2022-10-13T08:15:24.757Z,13.85
2022-10-13T08:18:27.813Z,14.06
2022-10-13T08:24:52.464Z,14.12
2022-10-13T08:27:58.185Z,14.11
2022-10-13T08:31:02.746Z,14.07
2022-10-13T08:34:05.019Z,14.24
2022-10-13T08:37:13.738Z,14.22
2022-10-13T08:40:20.734Z,14.25
2022-10-13T08:43:24.254Z,14.25
2022-10-13T08:46:30.666Z,14.51
2022-10-13T08:49:33.043Z,14.57
2022-10-13T08:52:52.602Z,14.71
2022-10-13T08:56:15.147Z,14.79
2022-10-13T08:59:21.681Z,14.81
2022-10-13T09:02:29.986Z,14.78
2022-10-13T09:05:41.223Z,14.81
2022-10-13T09:09:18.254Z,14.90
2022-10-13T09:12:24.117Z,15.07
2022-10-13T09:15:26.477Z,15.22
2022-10-13T09:18:31.798Z,15.26
2022-10-13T09:21:34.129Z,15.29
2022-10-13T09:28:29.002Z,15.54
2022-10-13T09:31:33.060Z,15.61
2022-10-13T09:34:35.398Z,15.64
2022-10-13T09:37:40.923Z,15.76
2022-10-13T09:40:56.586Z,15.92
2022-10-13T09:44:03.258Z,15.85
2022-10-13T09:47:05.714Z,15.98
2022-10-13T09:50:26.950Z,15.96
2022-10-13T09:53:40.357Z,16.09
2022-10-13T09:56:49.158Z,16.05
2022-10-13T09:59:51.420Z,16.05
2022-10-13T10:03:12.286Z,16.13
2022-10-13T10:06:16.697Z,16.19
2022-10-13T10:09:38.694Z,16.36
2022-10-13T10:12:43.018Z,16.49
2022-10-13T10:15:53.697Z,16.60
2022-10-13T10:19:05.822Z,16.50
2022-10-13T10:22:10.887Z,16.52
2022-10-13T10:25:26.227Z,16.57
2022-10-13T10:28:53.323Z,16.56
2022-10-13T10:32:02.990Z,16.69
2022-10-13T10:35:31.126Z,16.82
2022-10-13T10:39:00.188Z,16.73
2022-10-13T10:42:39.136Z,16.97
2022-10-13T10:45:43.224Z,16.86
2022-10-13T10:48:47.034Z,16.90
2022-10-13T10:51:50.106Z,16.98
2022-10-13T10:55:17.490Z,16.97
2022-10-13T10:58:35.071Z,17.08
2022-10-13T11:02:01.078Z,17.10
2022-10-13T11:05:06.310Z,17.17
2022-10-13T11:08:26.847Z,17.12
2022-10-13T11:11:33.562Z,17.31
2022-10-13T11:14:39.494Z,17.50
2022-10-13T11:17:42.486Z,17.34
2022-10-13T11:20:44.423Z,17.29
2022-10-13T11:23:49.661Z,17.39
2022-10-13T11:26:51.918Z,17.47
2022-10-13T11:29:58.078Z,17.56
2022-10-13T11:33:09.022Z,17.61
2022-10-13T11:36:43.315Z,17.65
2022-10-13T11:40:01.009Z,17.68
2022-10-13T11:43:22.183Z,17.66
2022-10-13T11:46:30.420Z,17.64
2022-10-13T11:49:50.112Z,17.60
2022-10-13T11:53:00.982Z,17.59
2022-10-13T11:56:03.402Z,17.69
2022-10-13T11:59:05.493Z,17.78
2022-10-13T12:02:12.331Z,17.86
2022-10-13T12:05:41.078Z,17.99
2022-10-13T12:08:47.266Z,17.77
2022-10-13T12:11:57.347Z,17.75
2022-10-13T12:15:02.637Z,17.76
2022-10-13T12:18:24.218Z,17.73
2022-10-13T12:21:27.281Z,17.81
2022-10-13T12:24:30.463Z,17.89
2022-10-13T12:27:55.598Z,17.88
2022-10-13T12:31:05.468Z,17.86
2022-10-13T12:34:20.078Z,17.86
2022-10-13T12:38:08.502Z,17.89
2022-10-13T12:41:11.842Z,18.06
2022-10-13T12:44:23.894Z,18.09
2022-10-13T12:47:45.525Z,18.14
2022-10-13T12:50:48.715Z,18.03
2022-10-13T12:53:51.351Z,18.02
2022-10-13T12:56:57.414Z,18.14
2022-10-13T12:59:59.750Z,18.25
2022-10-13T13:03:05.104Z,18.31
2022-10-13T13:06:22.968Z,18.27
2022-10-13T13:09:42.294Z,18.21
2022-10-13T13:12:51.239Z,18.14
2022-10-13T13:15:58.254Z,18.16
2022-10-13T13:19:22.588Z,18.21
2022-10-13T13:22:25.319Z,18.23
2022-10-13T13:25:27.897Z,18.18
2022-10-13T13:28:35.798Z,18.17
2022-10-13T13:31:43.393Z,18.18
2022-10-13T13:34:49.730Z,18.15
2022-10-13T13:37:54.757Z,18.18
2022-10-13T13:41:03.083Z,18.20
2022-10-13T13:44:06.923Z,18.23
2022-10-13T13:47:29.162Z,18.13
2022-10-13T13:50:34.199Z,18.28
2022-10-13T13:53:36.760Z,18.16
2022-10-13T13:56:39.226Z,18.07
2022-10-13T13:59:41.821Z,17.97
2022-10-13T14:02:45.051Z,18.07
2022-10-13T14:05:47.381Z,18.01
2022-10-13T14:08:50.713Z,18.11
2022-10-13T14:11:53.461Z,17.99
2022-10-13T14:14:57.206Z,18.00
2022-10-13T14:18:01.056Z,17.99
2022-10-13T14:21:07.405Z,17.84
2022-10-13T14:24:10.713Z,17.83
2022-10-13T14:27:12.755Z,17.79
2022-10-13T14:30:15.158Z,17.71
2022-10-13T14:33:19.534Z,17.70
2022-10-13T14:36:22.000Z,17.63
2022-10-13T14:39:24.054Z,17.59
2022-10-13T14:42:26.350Z,17.54
2022-10-13T14:45:28.383Z,17.49
2022-10-13T14:48:31.870Z,17.42
2022-10-13T14:51:33.933Z,17.40
2022-10-13T14:54:38.149Z,17.36
2022-10-13T14:57:44.436Z,17.30
2022-10-13T15:00:48.317Z,17.21
2022-10-13T15:03:50.736Z,17.15
2022-10-13T15:06:53.129Z,17.12
2022-10-13T15:10:05.068Z,17.06
2022-10-13T15:13:08.342Z,16.97
2022-10-13T15:16:17.883Z,16.91
2022-10-13T15:19:20.208Z,16.82
2022-10-13T15:22:22.596Z,16.76
2022-10-13T15:25:25.246Z,16.67
